Time;durP1;ratioP1;P1;durP2;ratioP2;P2;SDS_P1;SDS_P2;PMS_P1;PMS_P2;Temp;Humidity;BMP_temperature;BMP_pressure;BME280_temperature;BME280_humidity;BME280_pressure;Samples;Min_cycle;Max_cycle;Signal;HPM_P1;HPM_P2
2023/01/26 00:01:24;;;;;;;122.10;36.95;;;;;;;;;;4986041;28;20040;-72
2023/01/26 00:03:50;;;;;;;135.75;40.00;;;;;;;;;;4985776;28;20538;-72
2023/01/26 00:06:16;;;;;;;107.75;34.30;;;;;;;;;;4987892;28;20026;-73
2023/01/26 00:08:43;;;;;;;101.90;36.13;;;;;;;;;;4985857;28;20057;-72
2023/01/26 00:11:09;;;;;;;103.38;39.08;;;;;;;;;;4988036;28;21017;-72
2023/01/26 00:13:35;;;;;;;101.13;35.05;;;;;;;;;;4984586;28;20039;-71
2023/01/26 00:16:00;;;;;;;110.38;36.58;;;;;;;;;;4984365;28;20117;-72
2023/01/26 00:18:28;;;;;;;94.03;33.80;;;;;;;;;;4985717;28;20088;-71
2023/01/26 00:20:56;;;;;;;115.43;38.40;;;;;;;;;;4968588;28;20039;-73
2023/01/26 00:23:22;;;;;;;103.25;38.08;;;;;;;;;;4985947;28;20042;-73
2023/01/26 00:25:47;;;;;;;107.30;35.97;;;;;;;;;;4969460;28;20041;-72
2023/01/26 00:28:12;;;;;;;116.47;38.20;;;;;;;;;;4987292;28;20031;-73
2023/01/26 00:30:38;;;;;;;125.18;40.97;;;;;;;;;;4984840;28;20475;-74
2023/01/26 00:33:03;;;;;;;110.22;40.08;;;;;;;;;;4968959;28;20152;-73
2023/01/26 00:35:28;;;;;;;135.93;45.63;;;;;;;;;;4986301;28;20157;-73
2023/01/26 00:37:54;;;;;;;145.55;50.97;;;;;;;;;;4986736;28;20030;-73
2023/01/26 00:40:19;;;;;;;129.40;48.17;;;;;;;;;;4985325;28;20081;-73
2023/01/26 00:42:44;;;;;;;133.68;48.58;;;;;;;;;;4986417;28;20030;-74
2023/01/26 00:45:10;;;;;;;142.45;51.13;;;;;;;;;;4986574;28;20053;-73
2023/01/26 00:47:35;;;;;;;145.77;50.88;;;;;;;;;;5001164;28;20203;-71
2023/01/26 00:50:00;;;;;;;129.88;45.60;;;;;;;;;;5005066;28;20394;-72
2023/01/26 00:52:26;;;;;;;117.50;40.78;;;;;;;;;;5002906;28;20036;-73
2023/01/26 00:54:51;;;;;;;104.68;36.72;;;;;;;;;;5005461;28;20045;-71
2023/01/26 00:57:20;;;;;;;93.90;32.35;;;;;;;;;;5002943;28;20409;-73
2023/01/26 00:59:47;;;;;;;94.05;31.35;;;;;;;;;;5003084;28;20041;-70
2023/01/26 01:02:15;;;;;;;81.20;28.90;;;;;;;;;;5004499;28;20041;-72
2023/01/26 01:04:43;;;;;;;73.10;26.75;;;;;;;;;;5004846;28;20038;-71
2023/01/26 01:07:08;;;;;;;77.95;27.25;;;;;;;;;;5004866;28;20474;-71
2023/01/26 01:09:33;;;;;;;78.75;26.40;;;;;;;;;;5004840;28;20106;-71
2023/01/26 01:11:58;;;;;;;76.85;27.40;;;;;;;;;;5002742;28;20030;-72
2023/01/26 01:14:24;;;;;;;89.38;29.33;;;;;;;;;;4998068;28;20431;-70
2023/01/26 01:16:49;;;;;;;84.45;30.77;;;;;;;;;;4982851;28;20030;-70
2023/01/26 01:19:15;;;;;;;107.57;39.42;;;;;;;;;;4983918;28;20026;-72
2023/01/26 01:21:43;;;;;;;101.25;41.00;;;;;;;;;;4984009;28;20120;-72
2023/01/26 01:24:08;;;;;;;104.95;43.33;;;;;;;;;;4985826;28;20035;-73
2023/01/26 01:26:34;;;;;;;86.32;36.08;;;;;;;;;;4984969;28;20031;-72
2023/01/26 01:28:59;;;;;;;87.05;32.58;;;;;;;;;;4984356;28;20019;-73
2023/01/26 01:31:25;;;;;;;85.40;29.98;;;;;;;;;;4984812;28;20034;-72
2023/01/26 01:33:51;;;;;;;85.70;29.23;;;;;;;;;;4984431;28;20038;-71
2023/01/26 01:36:16;;;;;;;92.57;29.98;;;;;;;;;;4983120;28;20507;-72
2023/01/26 01:38:42;;;;;;;86.40;30.38;;;;;;;;;;4985118;28;20129;-71
2023/01/26 01:41:10;;;;;;;87.25;29.52;;;;;;;;;;4984197;28;20382;-72
2023/01/26 01:43:38;;;;;;;83.75;28.23;;;;;;;;;;4966438;28;20148;-71
2023/01/26 01:46:10;;;;;;;76.70;28.30;;;;;;;;;;4987715;28;20037;-71
2023/01/26 01:48:51;;;;;;;85.68;27.30;;;;;;;;;;5003692;28;20041;-72
2023/01/26 01:51:35;;;;;;;92.68;29.50;;;;;;;;;;4985628;28;20026;-71
2023/01/26 01:54:05;;;;;;;91.60;29.02;;;;;;;;;;5004839;28;20399;-72
2023/01/26 01:56:31;;;;;;;81.15;27.17;;;;;;;;;;5002553;28;20045;-73
2023/01/26 01:58:58;;;;;;;79.85;27.83;;;;;;;;;;5003582;28;20022;-73
2023/01/26 02:01:24;;;;;;;96.10;28.17;;;;;;;;;;5002909;28;20509;-73
2023/01/26 02:03:51;;;;;;;90.00;28.60;;;;;;;;;;5004866;28;20101;-73
2023/01/26 02:06:19;;;;;;;97.95;29.63;;;;;;;;;;5002742;28;20026;-73
2023/01/26 02:08:50;;;;;;;89.30;29.80;;;;;;;;;;5003881;28;20077;-72
2023/01/26 02:11:17;;;;;;;98.55;30.98;;;;;;;;;;5004601;28;20112;-72
2023/01/26 02:13:45;;;;;;;91.20;32.22;;;;;;;;;;4979876;28;20059;-73
2023/01/26 02:16:12;;;;;;;83.25;28.88;;;;;;;;;;4984476;28;20030;-73
2023/01/26 02:18:38;;;;;;;91.70;30.67;;;;;;;;;;4983763;28;20532;-72
2023/01/26 02:21:07;;;;;;;97.28;30.67;;;;;;;;;;4984980;28;20042;-72
2023/01/26 02:23:51;;;;;;;82.47;28.63;;;;;;;;;;4983445;28;20110;-71
2023/01/26 02:26:23;;;;;;;82.32;30.77;;;;;;;;;;4984393;28;20034;-73
2023/01/26 02:28:51;;;;;;;95.30;33.75;;;;;;;;;;4984477;28;20031;-73
2023/01/26 02:31:17;;;;;;;89.20;33.28;;;;;;;;;;4985040;28;25276;-73
2023/01/26 02:33:45;;;;;;;94.68;33.75;;;;;;;;;;4982721;28;20057;-73
2023/01/26 02:36:16;;;;;;;105.10;34.10;;;;;;;;;;4984607;28;20113;-73
2023/01/26 02:38:43;;;;;;;115.45;38.15;;;;;;;;;;4984217;28;20265;-73
2023/01/26 02:41:10;;;;;;;106.50;34.90;;;;;;;;;;4984854;28;20110;-73
2023/01/26 02:43:36;;;;;;;88.32;30.98;;;;;;;;;;4984676;28;20026;-74
2023/01/26 02:46:01;;;;;;;97.32;32.17;;;;;;;;;;4984473;28;20052;-73
2023/01/26 02:51:11;;;;;;;97.32;33.53;;;;;;;;;;4982323;28;20054;-73
2023/01/26 02:53:38;;;;;;;99.38;33.92;;;;;;;;;;4966405;28;20064;-72
2023/01/26 02:56:03;;;;;;;121.30;41.05;;;;;;;;;;4982225;28;20046;-73
2023/01/26 02:58:29;;;;;;;111.45;39.25;;;;;;;;;;4983819;28;20108;-72
2023/01/26 03:00:54;;;;;;;119.78;40.58;;;;;;;;;;4983957;28;20118;-73
2023/01/26 03:03:23;;;;;;;124.20;38.70;;;;;;;;;;4984683;28;20037;-72
2023/01/26 03:05:49;;;;;;;124.63;37.15;;;;;;;;;;4983885;28;20027;-73
2023/01/26 03:08:14;;;;;;;112.20;41.25;;;;;;;;;;4983902;28;20038;-72
2023/01/26 03:10:40;;;;;;;124.38;41.17;;;;;;;;;;4983170;28;20065;-72
2023/01/26 03:13:08;;;;;;;120.07;40.45;;;;;;;;;;4981714;28;20041;-72
2023/01/26 03:15:41;;;;;;;103.80;37.05;;;;;;;;;;4983329;28;20031;-71
2023/01/26 03:29:11;;;;;;;101.93;35.55;;;;;;;;;;4982631;28;20166;-73
2023/01/26 03:31:44;;;;;;;134.48;35.92;;;;;;;;;;4966630;28;20217;-73
2023/01/26 03:34:10;;;;;;;128.68;35.17;;;;;;;;;;5003280;28;20034;-73
2023/01/26 03:36:36;;;;;;;93.03;33.50;;;;;;;;;;5003515;28;20511;-71
2023/01/26 03:39:04;;;;;;;111.63;34.03;;;;;;;;;;5005069;28;20479;-71
2023/01/26 03:57:57;;;;;;;76.85;21.88;;;;;;;;;;5007331;28;20030;-72
2023/01/26 04:00:23;;;;;;;77.78;21.63;;;;;;;;;;5008380;28;20135;-72
2023/01/26 04:08:21;;;;;;;57.00;14.23;;;;;;;;;;5007744;28;20038;-71
2023/01/26 04:10:47;;;;;;;43.97;12.48;;;;;;;;;;5007919;28;20050;-72
2023/01/26 04:21:32;;;;;;;39.33;6.93;;;;;;;;;;4987482;28;20101;-71
2023/01/26 04:23:57;;;;;;;38.88;7.25;;;;;;;;;;4985962;28;20045;-71
2023/01/26 04:26:24;;;;;;;38.42;6.00;;;;;;;;;;4986283;28;20034;-71
2023/01/26 04:28:49;;;;;;;38.45;5.70;;;;;;;;;;4969557;28;20109;-71
2023/01/26 04:31:17;;;;;;;51.60;5.97;;;;;;;;;;4987166;28;20034;-72
2023/01/26 04:33:42;;;;;;;41.90;5.40;;;;;;;;;;4987799;28;20038;-71
2023/01/26 04:36:08;;;;;;;39.42;4.45;;;;;;;;;;4987331;28;20213;-72
2023/01/26 04:38:33;;;;;;;41.70;5.35;;;;;;;;;;4979790;28;20048;-72
2023/01/26 04:40:59;;;;;;;46.55;4.88;;;;;;;;;;4986074;28;20034;-73
2023/01/26 04:43:24;;;;;;;41.90;4.93;;;;;;;;;;4985713;28;20535;-71
2023/01/26 04:45:58;;;;;;;39.90;5.35;;;;;;;;;;4989328;28;20072;-72
2023/01/26 04:48:24;;;;;;;45.20;4.82;;;;;;;;;;5006701;28;20128;-72
2023/01/26 04:50:52;;;;;;;38.53;4.38;;;;;;;;;;5006867;28;20138;-71
2023/01/26 04:53:19;;;;;;;43.03;4.80;;;;;;;;;;5004735;28;20390;-71
2023/01/26 04:55:47;;;;;;;44.15;5.63;;;;;;;;;;5006896;28;20034;-71
2023/01/26 04:58:12;;;;;;;48.72;5.93;;;;;;;;;;5004436;28;20040;-72
2023/01/26 05:00:38;;;;;;;40.78;4.10;;;;;;;;;;5006211;28;20403;-72
2023/01/26 05:03:03;;;;;;;36.90;4.05;;;;;;;;;;5004349;28;20034;-71
2023/01/26 05:05:28;;;;;;;49.05;4.60;;;;;;;;;;5005129;28;20053;-71
2023/01/26 05:07:53;;;;;;;41.63;5.07;;;;;;;;;;5005996;28;20118;-71
2023/01/26 05:10:22;;;;;;;40.15;4.22;;;;;;;;;;4999367;28;20065;-72
2023/01/26 05:12:50;;;;;;;44.70;4.72;;;;;;;;;;4985107;28;20128;-71
2023/01/26 05:15:15;;;;;;;46.60;5.63;;;;;;;;;;4987244;28;20034;-71
2023/01/26 05:17:40;;;;;;;43.10;4.30;;;;;;;;;;4986478;28;20476;-71
2023/01/26 05:20:06;;;;;;;37.55;4.45;;;;;;;;;;4985322;28;20579;-72
2023/01/26 05:22:34;;;;;;;48.58;6.20;;;;;;;;;;4984403;28;20088;-72
2023/01/26 05:24:59;;;;;;;35.10;5.43;;;;;;;;;;4984750;28;20027;-72
2023/01/26 05:27:24;;;;;;;50.35;4.50;;;;;;;;;;4984655;28;20034;-71
2023/01/26 05:29:50;;;;;;;58.72;4.82;;;;;;;;;;4984913;28;20479;-72
2023/01/26 05:32:15;;;;;;;44.88;5.88;;;;;;;;;;4985533;28;20044;-72
2023/01/26 05:34:41;;;;;;;47.83;4.88;;;;;;;;;;4984698;28;20034;-71
2023/01/26 05:37:06;;;;;;;74.72;6.15;;;;;;;;;;4984582;28;20416;-72
2023/01/26 05:39:31;;;;;;;51.75;4.47;;;;;;;;;;4984713;28;20081;-71
2023/01/26 05:41:56;;;;;;;50.92;5.60;;;;;;;;;;4984298;28;20108;-72
2023/01/26 05:44:23;;;;;;;34.95;4.35;;;;;;;;;;4986431;28;20408;-72
2023/01/26 05:46:51;;;;;;;43.50;5.88;;;;;;;;;;4993927;28;20487;-71
2023/01/26 05:49:19;;;;;;;45.35;4.97;;;;;;;;;;5005208;28;20133;-71
2023/01/26 05:51:44;;;;;;;55.67;6.82;;;;;;;;;;5004036;28;20454;-71
2023/01/26 05:54:09;;;;;;;45.47;4.72;;;;;;;;;;5005719;28;20098;-71
2023/01/26 05:56:36;;;;;;;49.80;5.85;;;;;;;;;;5005241;28;20033;-71
2023/01/26 05:59:02;;;;;;;53.38;5.45;;;;;;;;;;5005807;28;20022;-72
2023/01/26 06:01:27;;;;;;;51.55;5.40;;;;;;;;;;5005230;28;20033;-71
2023/01/26 06:03:53;;;;;;;45.45;5.63;;;;;;;;;;5004325;28;20487;-72
2023/01/26 06:06:18;;;;;;;40.20;4.88;;;;;;;;;;5005146;28;20196;-72
2023/01/26 06:08:43;;;;;;;51.40;5.00;;;;;;;;;;4986176;28;20479;-71
2023/01/26 06:11:09;;;;;;;42.05;5.38;;;;;;;;;;4985311;28;20026;-71
2023/01/26 06:13:34;;;;;;;43.67;5.70;;;;;;;;;;4984080;28;20579;-71
2023/01/26 06:16:00;;;;;;;47.78;5.68;;;;;;;;;;4985423;28;20026;-70
2023/01/26 06:18:25;;;;;;;42.38;5.38;;;;;;;;;;4986006;28;20034;-71
2023/01/26 06:20:51;;;;;;;45.58;5.43;;;;;;;;;;4985000;28;20085;-72
2023/01/26 06:23:16;;;;;;;41.17;4.10;;;;;;;;;;4984158;28;20046;-71
2023/01/26 06:25:43;;;;;;;46.75;5.35;;;;;;;;;;4985221;28;20034;-72
2023/01/26 06:28:11;;;;;;;38.72;4.43;;;;;;;;;;4985551;28;20034;-71
2023/01/26 06:30:36;;;;;;;39.33;4.15;;;;;;;;;;4967489;28;20030;-72
2023/01/26 06:33:02;;;;;;;40.63;4.45;;;;;;;;;;4983596;28;20045;-71
2023/01/26 06:35:27;;;;;;;35.58;4.53;;;;;;;;;;4983140;28;20069;-72
2023/01/26 06:37:52;;;;;;;40.08;4.55;;;;;;;;;;4985435;28;20034;-71
2023/01/26 06:40:18;;;;;;;33.22;4.13;;;;;;;;;;4983181;28;20034;-71
2023/01/26 06:42:47;;;;;;;42.47;5.93;;;;;;;;;;4985562;28;20113;-71
2023/01/26 06:45:13;;;;;;;38.88;5.03;;;;;;;;;;4983117;28;20117;-71
2023/01/26 06:47:43;;;;;;;33.78;5.47;;;;;;;;;;5001466;28;20494;-72
2023/01/26 06:50:08;;;;;;;30.70;5.47;;;;;;;;;;5002426;28;20038;-73
2023/01/26 06:52:34;;;;;;;51.10;5.72;;;;;;;;;;5003343;28;20033;-73
2023/01/26 06:55:00;;;;;;;34.88;4.65;;;;;;;;;;5002909;28;20030;-72
2023/01/26 06:57:25;;;;;;;43.17;4.60;;;;;;;;;;5003042;28;20093;-72
2023/01/26 06:59:54;;;;;;;47.03;5.00;;;;;;;;;;4995807;28;20080;-72
2023/01/26 07:02:20;;;;;;;38.47;3.95;;;;;;;;;;5003286;28;20022;-73
2023/01/26 07:04:48;;;;;;;45.58;5.65;;;;;;;;;;4986544;28;20037;-73
2023/01/26 07:07:16;;;;;;;30.65;4.53;;;;;;;;;;5002781;28;20041;-73
2023/01/26 07:09:41;;;;;;;49.35;4.70;;;;;;;;;;4988527;28;20113;-73
2023/01/26 07:12:06;;;;;;;35.35;4.63;;;;;;;;;;4983064;28;20137;-73
2023/01/26 07:14:34;;;;;;;36.25;3.58;;;;;;;;;;4983402;28;20037;-73
2023/01/26 07:17:00;;;;;;;30.83;3.92;;;;;;;;;;4984785;28;20109;-73
2023/01/26 07:19:25;;;;;;;38.30;5.63;;;;;;;;;;4985183;28;20031;-72
2023/01/26 07:21:51;;;;;;;41.30;3.83;;;;;;;;;;4982990;28;20023;-73
2023/01/26 07:24:16;;;;;;;48.00;4.88;;;;;;;;;;4986007;28;20038;-73
2023/01/26 07:26:41;;;;;;;32.72;4.15;;;;;;;;;;4988711;28;20034;-73
2023/01/26 07:29:06;;;;;;;39.47;3.90;;;;;;;;;;4987780;28;20035;-72
2023/01/26 07:31:32;;;;;;;44.67;4.55;;;;;;;;;;4988513;28;20105;-73
2023/01/26 07:33:57;;;;;;;37.58;3.83;;;;;;;;;;4987424;28;20403;-72
2023/01/26 07:36:22;;;;;;;39.80;4.20;;;;;;;;;;4986559;28;20042;-73
2023/01/26 07:38:48;;;;;;;34.13;4.35;;;;;;;;;;4988874;28;20494;-73
2023/01/26 07:41:13;;;;;;;29.38;3.40;;;;;;;;;;4970608;28;20195;-73
2023/01/26 07:43:41;;;;;;;37.60;4.55;;;;;;;;;;4988378;28;20109;-73
2023/01/26 07:46:11;;;;;;;38.22;4.18;;;;;;;;;;4990283;28;20072;-72
2023/01/26 07:48:40;;;;;;;39.95;4.30;;;;;;;;;;5007715;28;20479;-72
2023/01/26 07:51:08;;;;;;;41.17;5.07;;;;;;;;;;5006672;28;20080;-74
2023/01/26 07:53:38;;;;;;;45.13;4.47;;;;;;;;;;5008292;28;20030;-72
2023/01/26 07:56:04;;;;;;;45.67;5.55;;;;;;;;;;5008091;28;20293;-73
2023/01/26 07:58:30;;;;;;;39.08;4.25;;;;;;;;;;5006817;28;20113;-73
2023/01/26 08:01:11;;;;;;;39.85;5.05;;;;;;;;;;5007945;28;20037;-74
2023/01/26 08:03:39;;;;;;;38.13;4.05;;;;;;;;;;5008045;28;20072;-73
2023/01/26 08:06:04;;;;;;;42.47;4.65;;;;;;;;;;5007931;28;20050;-72
2023/01/26 08:08:30;;;;;;;36.88;4.88;;;;;;;;;;5006130;28;20486;-74
2023/01/26 08:10:57;;;;;;;34.97;5.68;;;;;;;;;;5006683;28;20101;-73
2023/01/26 08:13:24;;;;;;;40.35;5.20;;;;;;;;;;5007594;28;20040;-74
2023/01/26 08:15:50;;;;;;;53.03;5.55;;;;;;;;;;5005658;28;20025;-72
2023/01/26 08:18:20;;;;;;;39.60;5.13;;;;;;;;;;5007145;28;20026;-72
2023/01/26 08:20:51;;;;;;;38.17;4.63;;;;;;;;;;5007097;28;20061;-73
2023/01/26 08:23:16;;;;;;;37.47;4.85;;;;;;;;;;5007227;28;20038;-73
2023/01/26 08:25:41;;;;;;;48.17;5.75;;;;;;;;;;5007606;28;20491;-73
2023/01/26 08:28:07;;;;;;;37.53;4.70;;;;;;;;;;5007004;28;20042;-72
2023/01/26 08:30:32;;;;;;;36.40;4.38;;;;;;;;;;5006189;28;20026;-74
2023/01/26 08:32:57;;;;;;;36.58;5.40;;;;;;;;;;5005442;28;20525;-73
2023/01/26 08:35:23;;;;;;;42.20;5.10;;;;;;;;;;5005799;28;20033;-73
2023/01/26 08:37:48;;;;;;;39.63;5.20;;;;;;;;;;5007357;28;20058;-72
2023/01/26 08:40:18;;;;;;;43.00;4.47;;;;;;;;;;5005625;28;20076;-73
2023/01/26 08:42:43;;;;;;;38.00;4.68;;;;;;;;;;5006820;28;20033;-72
2023/01/26 08:45:09;;;;;;;38.53;4.35;;;;;;;;;;5005536;28;20030;-73
2023/01/26 08:47:34;;;;;;;39.58;4.22;;;;;;;;;;5004062;28;20120;-71
2023/01/26 08:49:59;;;;;;;34.22;5.32;;;;;;;;;;5007003;28;20051;-72
2023/01/26 08:52:25;;;;;;;34.25;4.65;;;;;;;;;;5004896;28;20042;-71
2023/01/26 08:54:52;;;;;;;39.83;5.38;;;;;;;;;;5007078;28;20026;-71
2023/01/26 08:57:20;;;;;;;36.35;3.92;;;;;;;;;;5006672;28;20050;-71
2023/01/26 08:59:45;;;;;;;37.55;5.72;;;;;;;;;;5006634;28;20026;-71
2023/01/26 09:02:11;;;;;;;38.25;4.35;;;;;;;;;;4988906;28;20032;-71
2023/01/26 09:04:36;;;;;;;34.38;3.47;;;;;;;;;;5005172;28;20552;-72
2023/01/26 09:07:01;;;;;;;40.53;3.95;;;;;;;;;;4997055;28;20391;-73
2023/01/26 09:09:27;;;;;;;30.88;3.75;;;;;;;;;;4985819;28;20080;-73
2023/01/26 09:11:55;;;;;;;46.50;6.20;;;;;;;;;;4986699;28;20022;-72
2023/01/26 09:14:21;;;;;;;31.60;3.88;;;;;;;;;;4968973;28;20105;-72
2023/01/26 09:16:46;;;;;;;28.30;3.50;;;;;;;;;;4985567;28;20146;-72
2023/01/26 09:19:12;;;;;;;35.03;4.45;;;;;;;;;;4986618;28;20029;-71
2023/01/26 09:21:37;;;;;;;36.28;4.18;;;;;;;;;;4985278;28;20026;-72
2023/01/26 09:24:05;;;;;;;34.40;3.80;;;;;;;;;;4969139;28;20034;-73
2023/01/26 09:26:30;;;;;;;24.98;3.45;;;;;;;;;;4984838;28;20027;-72
2023/01/26 09:28:56;;;;;;;30.77;3.75;;;;;;;;;;4985393;28;20360;-72
2023/01/26 09:31:21;;;;;;;29.38;3.25;;;;;;;;;;4984769;28;20019;-72
2023/01/26 09:33:47;;;;;;;28.33;4.65;;;;;;;;;;4969345;28;20035;-73
2023/01/26 09:36:13;;;;;;;24.73;3.58;;;;;;;;;;4984654;28;20050;-73
2023/01/26 09:38:39;;;;;;;29.67;3.85;;;;;;;;;;4968706;28;20031;-74
2023/01/26 09:41:17;;;;;;;23.75;2.95;;;;;;;;;;4984842;28;20069;-72
2023/01/26 09:43:48;;;;;;;39.72;4.18;;;;;;;;;;4986595;28;20507;-74
2023/01/26 09:46:13;;;;;;;30.67;3.60;;;;;;;;;;4990776;28;20045;-72
2023/01/26 09:48:44;;;;;;;27.10;3.63;;;;;;;;;;5004170;28;20029;-73
2023/01/26 09:51:22;;;;;;;25.70;3.47;;;;;;;;;;5003970;28;20036;-73
2023/01/26 09:53:56;;;;;;;31.05;3.90;;;;;;;;;;5005916;28;20034;-73
2023/01/26 09:56:23;;;;;;;34.53;3.80;;;;;;;;;;5005856;28;20052;-75
2023/01/26 09:58:53;;;;;;;27.65;4.18;;;;;;;;;;5005379;28;20034;-72
2023/01/26 10:01:38;;;;;;;28.17;3.22;;;;;;;;;;5005443;28;20112;-71
2023/01/26 10:04:09;;;;;;;28.77;3.33;;;;;;;;;;5005456;28;20034;-72
2023/01/26 10:06:37;;;;;;;24.90;3.05;;;;;;;;;;4988721;28;20031;-73
2023/01/26 10:09:23;;;;;;;31.90;3.95;;;;;;;;;;4984694;28;20077;-71
2023/01/26 10:11:51;;;;;;;24.17;3.40;;;;;;;;;;4984238;28;20553;-73
2023/01/26 10:14:24;;;;;;;31.58;4.50;;;;;;;;;;4983626;28;20042;-73
2023/01/26 10:16:50;;;;;;;59.10;7.20;;;;;;;;;;4984082;28;20022;-74
2023/01/26 10:19:32;;;;;;;74.05;8.30;;;;;;;;;;4984011;28;20368;-72
2023/01/26 10:22:01;;;;;;;68.40;6.93;;;;;;;;;;4985786;28;20027;-73
2023/01/26 10:24:26;;;;;;;51.47;6.68;;;;;;;;;;4983505;28;20033;-71
2023/01/26 10:26:55;;;;;;;48.83;6.78;;;;;;;;;;4967926;28;20030;-72
2023/01/26 10:29:21;;;;;;;51.53;7.07;;;;;;;;;;4985242;28;20022;-71
2023/01/26 10:31:46;;;;;;;52.90;6.65;;;;;;;;;;4985833;28;20077;-72
2023/01/26 10:34:14;;;;;;;57.17;6.63;;;;;;;;;;4983656;28;20113;-72
2023/01/26 10:36:40;;;;;;;49.42;5.50;;;;;;;;;;4985531;28;20034;-72
2023/01/26 10:39:06;;;;;;;44.40;6.65;;;;;;;;;;4984376;28;20031;-72
2023/01/26 10:41:32;;;;;;;48.85;7.55;;;;;;;;;;4983614;28;20296;-71
2023/01/26 10:44:02;;;;;;;50.67;6.80;;;;;;;;;;4967253;28;20479;-72
2023/01/26 10:46:34;;;;;;;44.22;5.95;;;;;;;;;;4991721;28;20056;-72
2023/01/26 10:49:02;;;;;;;57.25;7.93;;;;;;;;;;5005212;28;20502;-71
2023/01/26 10:51:31;;;;;;;51.45;7.25;;;;;;;;;;5004706;28;20633;-71
2023/01/26 10:54:15;;;;;;;50.20;6.57;;;;;;;;;;5005041;28;20038;-71
2023/01/26 10:57:01;;;;;;;38.95;5.47;;;;;;;;;;5003084;28;20037;-72
2023/01/26 10:59:28;;;;;;;45.25;5.80;;;;;;;;;;5003551;28;20030;-72
2023/01/26 11:01:55;;;;;;;39.40;6.60;;;;;;;;;;4986809;28;20050;-70
2023/01/26 11:04:21;;;;;;;62.50;7.75;;;;;;;;;;5001413;28;20042;-72
2023/01/26 11:06:49;;;;;;;41.22;5.78;;;;;;;;;;4985142;28;20104;-72
2023/01/26 11:09:24;;;;;;;53.22;7.88;;;;;;;;;;4985476;28;20026;-71
2023/01/26 11:12:03;;;;;;;44.92;6.35;;;;;;;;;;4999862;28;20030;-71
2023/01/26 11:14:29;;;;;;;51.33;6.60;;;;;;;;;;4983187;28;20035;-72
2023/01/26 11:16:58;;;;;;;44.55;6.85;;;;;;;;;;4983555;28;20068;-71
2023/01/26 11:19:32;;;;;;;43.85;5.90;;;;;;;;;;4983471;28;20415;-72
2023/01/26 11:21:59;;;;;;;38.22;5.53;;;;;;;;;;4984977;28;20106;-73
2023/01/26 11:24:25;;;;;;;38.90;5.00;;;;;;;;;;4985263;28;20030;-72
2023/01/26 11:27:11;;;;;;;35.83;5.22;;;;;;;;;;4983424;28;20109;-72
2023/01/26 11:29:45;;;;;;;33.22;4.78;;;;;;;;;;4982855;28;20018;-73
2023/01/26 11:32:17;;;;;;;37.28;4.70;;;;;;;;;;4983473;28;20580;-73
2023/01/26 11:34:42;;;;;;;31.45;4.55;;;;;;;;;;4985231;28;20495;-71
2023/01/26 11:37:31;;;;;;;39.13;5.38;;;;;;;;;;4983736;28;20027;-72
2023/01/26 11:40:10;;;;;;;38.20;5.68;;;;;;;;;;4983553;28;20498;-73
2023/01/26 11:42:50;;;;;;;41.53;7.05;;;;;;;;;;4983297;28;20019;-72
2023/01/26 11:45:15;;;;;;;43.20;5.07;;;;;;;;;;4984999;28;20137;-73
2023/01/26 11:48:01;;;;;;;35.83;6.13;;;;;;;;;;4999518;28;20053;-73
2023/01/26 11:50:35;;;;;;;41.22;5.38;;;;;;;;;;5002649;28;20375;-73
2023/01/26 11:53:36;;;;;;;40.70;7.50;;;;;;;;;;5002595;28;20084;-73
2023/01/26 11:56:20;;;;;;;35.42;5.20;;;;;;;;;;5000754;28;20176;-73
2023/01/26 11:58:49;;;;;;;36.85;4.70;;;;;;;;;;5004378;28;20037;-72
2023/01/26 12:01:19;;;;;;;30.08;4.63;;;;;;;;;;5004136;28;20029;-72
2023/01/26 12:03:46;;;;;;;27.83;4.43;;;;;;;;;;4996476;28;20038;-74
2023/01/26 12:06:16;;;;;;;39.25;4.90;;;;;;;;;;4985118;28;20033;-73
2023/01/26 12:08:43;;;;;;;34.05;5.50;;;;;;;;;;4983464;28;20030;-72
2023/01/26 12:11:21;;;;;;;24.13;3.92;;;;;;;;;;4986195;28;20383;-73
2023/01/26 12:13:49;;;;;;;29.77;3.60;;;;;;;;;;4986846;28;20037;-73
2023/01/26 12:16:34;;;;;;;27.92;4.07;;;;;;;;;;4987954;28;20105;-73
2023/01/26 12:19:02;;;;;;;40.60;5.07;;;;;;;;;;4988184;28;20023;-72
2023/01/26 12:21:30;;;;;;;49.70;5.72;;;;;;;;;;4987887;28;20456;-73
2023/01/26 12:24:01;;;;;;;44.67;5.75;;;;;;;;;;4986633;28;20365;-72
2023/01/26 12:26:28;;;;;;;42.92;5.75;;;;;;;;;;4985941;28;20030;-73
2023/01/26 12:29:25;;;;;;;35.45;5.05;;;;;;;;;;4987738;28;20037;-73
2023/01/26 12:32:09;;;;;;;45.28;5.20;;;;;;;;;;4967916;28;20023;-73
2023/01/26 12:34:34;;;;;;;36.28;4.90;;;;;;;;;;4968383;28;20065;-73
2023/01/26 12:37:35;;;;;;;40.55;5.18;;;;;;;;;;4950898;28;20046;-73
2023/01/26 12:40:10;;;;;;;34.53;4.97;;;;;;;;;;4948726;28;20449;-73
2023/01/26 12:42:48;;;;;;;35.08;4.05;;;;;;;;;;4978450;28;20514;-73
2023/01/26 12:45:18;;;;;;;36.55;5.10;;;;;;;;;;4987492;28;20109;-73
2023/01/26 12:47:49;;;;;;;26.15;3.60;;;;;;;;;;4985442;28;20154;-72
2023/01/26 12:50:21;;;;;;;26.75;4.00;;;;;;;;;;4969456;28;20031;-74
2023/01/26 12:52:52;;;;;;;40.50;5.30;;;;;;;;;;4985094;28;20064;-73
2023/01/26 12:55:23;;;;;;;31.42;4.85;;;;;;;;;;4985561;28;20030;-73
2023/01/26 12:57:51;;;;;;;34.83;4.78;;;;;;;;;;4985491;28;20026;-72
2023/01/26 13:00:24;;;;;;;34.95;4.63;;;;;;;;;;4987461;28;20022;-73
2023/01/26 13:02:51;;;;;;;38.45;4.75;;;;;;;;;;4969086;28;20030;-72
2023/01/26 13:05:27;;;;;;;37.35;3.65;;;;;;;;;;4987136;28;20066;-71
2023/01/26 13:07:53;;;;;;;21.77;3.13;;;;;;;;;;4986923;28;20558;-73
2023/01/26 13:10:28;;;;;;;21.65;3.20;;;;;;;;;;4987496;28;20038;-72
2023/01/26 13:13:00;;;;;;;29.33;3.65;;;;;;;;;;4987081;28;20037;-74
2023/01/26 13:15:32;;;;;;;33.90;4.95;;;;;;;;;;4986608;28;20037;-74
2023/01/26 13:18:01;;;;;;;31.40;4.72;;;;;;;;;;4986581;28;20026;-73
2023/01/26 13:20:47;;;;;;;38.25;5.03;;;;;;;;;;4986761;28;20388;-73
2023/01/26 13:23:27;;;;;;;33.45;4.50;;;;;;;;;;4985746;28;20216;-73
2023/01/26 13:26:11;;;;;;;34.60;4.80;;;;;;;;;;4984790;28;20088;-72
2023/01/26 13:28:37;;;;;;;36.53;4.03;;;;;;;;;;4984510;28;20478;-73
2023/01/26 13:31:03;;;;;;;37.70;5.07;;;;;;;;;;4986919;28;20050;-73
2023/01/26 13:33:29;;;;;;;31.55;4.55;;;;;;;;;;4984802;28;20034;-72
2023/01/26 13:35:54;;;;;;;36.67;4.32;;;;;;;;;;4985485;28;20501;-73
2023/01/26 13:38:30;;;;;;;31.00;5.20;;;;;;;;;;4985713;28;20563;-71
2023/01/26 13:40:58;;;;;;;42.13;4.57;;;;;;;;;;4984603;28;20037;-72
2023/01/26 13:43:23;;;;;;;30.05;3.67;;;;;;;;;;4985980;28;20061;-72
2023/01/26 13:46:05;;;;;;;29.27;3.70;;;;;;;;;;4988396;28;20114;-71
2023/01/26 13:48:49;;;;;;;34.90;3.72;;;;;;;;;;4986323;28;20034;-71
2023/01/26 13:51:24;;;;;;;25.95;3.75;;;;;;;;;;5005698;28;20034;-70
2023/01/26 13:53:56;;;;;;;24.85;4.40;;;;;;;;;;5004153;28;20479;-72
2023/01/26 13:56:22;;;;;;;;;;;;;;;;;;5004318;28;20117;-72
2023/01/26 13:58:47;;;;;;;27.23;4.30;;;;;;;;;;5006060;28;20009;-73
2023/01/26 14:01:16;;;;;;;14.18;2.30;;;;;;;;;;5000757;28;20146;-72
2023/01/26 14:03:41;;;;;;;15.68;1.90;;;;;;;;;;4986209;28;20154;-72
2023/01/26 14:06:09;;;;;;;13.63;2.42;;;;;;;;;;4985650;28;20022;-70
2023/01/26 14:08:35;;;;;;;20.02;2.85;;;;;;;;;;4985495;28;20037;-73
2023/01/26 14:11:02;;;;;;;22.52;3.55;;;;;;;;;;4984276;28;20030;-71
2023/01/26 14:13:37;;;;;;;27.98;3.70;;;;;;;;;;4984039;28;20425;-71
2023/01/26 14:16:03;;;;;;;26.23;3.13;;;;;;;;;;4984009;28;20137;-72
2023/01/26 14:18:29;;;;;;;36.25;3.53;;;;;;;;;;4986012;28;20033;-72
2023/01/26 14:20:58;;;;;;;29.13;4.32;;;;;;;;;;4986141;28;20038;-72
2023/01/26 14:23:29;;;;;;;25.65;3.78;;;;;;;;;;4967483;28;20049;-73
2023/01/26 14:26:16;;;;;;;34.22;4.75;;;;;;;;;;4985649;28;20057;-72
2023/01/26 14:28:42;;;;;;;34.80;4.13;;;;;;;;;;4985619;28;20038;-73
2023/01/26 14:31:13;;;;;;;34.70;4.35;;;;;;;;;;4984516;28;20488;-74
2023/01/26 14:33:39;;;;;;;27.02;3.70;;;;;;;;;;4985027;28;20034;-71
2023/01/26 14:36:04;;;;;;;38.50;4.43;;;;;;;;;;4978229;28;20419;-72
2023/01/26 14:38:38;;;;;;;37.90;4.63;;;;;;;;;;4986540;28;20054;-72
2023/01/26 14:41:08;;;;;;;32.88;5.60;;;;;;;;;;4984169;28;20022;-73
2023/01/26 14:43:34;;;;;;;24.40;3.67;;;;;;;;;;4983626;28;20080;-72
2023/01/26 14:45:59;;;;;;;34.80;3.90;;;;;;;;;;4988610;28;20030;-72
2023/01/26 14:48:44;;;;;;;17.50;2.85;;;;;;;;;;5002865;28;20046;-72
2023/01/26 14:51:17;;;;;;;12.90;1.88;;;;;;;;;;4992139;28;20141;-73
2023/01/26 14:53:47;;;;;;;20.65;2.28;;;;;;;;;;5002924;28;20038;-72
2023/01/26 14:56:14;;;;;;;;;;;;;;;;;;5003604;28;20076;-72
2023/01/26 14:58:40;;;;;;;20.05;2.25;;;;;;;;;;5003507;28;19941;-71
2023/01/26 15:01:05;;;;;;;19.05;2.15;;;;;;;;;;4989625;28;20522;-72
2023/01/26 15:03:32;;;;;;;12.55;1.85;;;;;;;;;;4983653;28;20026;-71
2023/01/26 15:06:12;;;;;;;10.80;1.90;;;;;;;;;;4983311;28;20027;-72
2023/01/26 15:08:39;;;;;;;9.68;2.05;;;;;;;;;;4983746;28;20042;-73
2023/01/26 15:13:52;;;;;;;10.52;1.50;;;;;;;;;;4983905;28;20050;-74
2023/01/26 15:16:21;;;;;;;9.90;1.63;;;;;;;;;;4985346;28;20026;-73
2023/01/26 15:19:00;;;;;;;15.35;2.70;;;;;;;;;;4985068;28;20495;-73
2023/01/26 15:21:31;;;;;;;20.23;2.65;;;;;;;;;;4985041;28;20018;-75